createdAt,value
2023-08-14T00:00:51.044Z,21.39
2023-08-14T00:03:19.542Z,21.42
2023-08-14T00:05:47.641Z,21.48
2023-08-14T00:08:15.799Z,21.52
2023-08-14T00:10:45.169Z,21.54
2023-08-14T00:13:13.182Z,21.53
2023-08-14T00:15:41.346Z,21.56
2023-08-14T00:18:09.749Z,21.61
2023-08-14T00:20:37.854Z,21.63
2023-08-14T00:23:05.926Z,21.60
2023-08-14T00:25:33.967Z,21.60
2023-08-14T00:28:03.544Z,21.62
2023-08-14T00:30:31.651Z,21.64
2023-08-14T00:32:59.763Z,21.64
2023-08-14T00:35:27.878Z,21.64
2023-08-14T00:37:56.162Z,21.68
2023-08-14T00:40:24.325Z,21.67
2023-08-14T00:42:52.348Z,21.71
2023-08-14T00:45:24.803Z,21.72
2023-08-14T00:47:55.456Z,21.80
2023-08-14T00:50:23.583Z,21.84
2023-08-14T00:52:52.906Z,21.86
2023-08-14T00:55:22.852Z,21.87
2023-08-14T00:57:51.288Z,21.87
2023-08-14T01:00:19.671Z,21.88
2023-08-14T01:02:49.473Z,21.87
2023-08-14T01:05:17.681Z,21.97
2023-08-14T01:07:45.759Z,22.03
2023-08-14T01:10:14.013Z,22.07
2023-08-14T01:12:45.406Z,22.10
2023-08-14T01:15:14.986Z,22.11
2023-08-14T01:17:46.514Z,22.08
2023-08-14T01:20:16.422Z,22.08
2023-08-14T01:22:47.434Z,22.04
2023-08-14T01:25:31.574Z,22.06
2023-08-14T01:27:59.796Z,22.08
2023-08-14T01:30:27.955Z,22.07
2023-08-14T01:32:56.116Z,22.10
2023-08-14T01:35:25.638Z,22.10
2023-08-14T01:37:57.177Z,22.12
2023-08-14T01:40:28.255Z,22.15
2023-08-14T01:43:00.290Z,22.16
2023-08-14T01:45:29.355Z,22.18
2023-08-14T01:47:57.535Z,22.17
2023-08-14T01:50:26.629Z,22.15
2023-08-14T01:52:54.686Z,22.15
2023-08-14T01:55:22.927Z,22.17
2023-08-14T01:57:50.945Z,22.15
2023-08-14T02:00:20.659Z,22.15
2023-08-14T02:02:48.957Z,22.13
2023-08-14T02:05:17.256Z,22.08
2023-08-14T02:07:45.342Z,22.05
2023-08-14T02:10:13.619Z,22.04
2023-08-14T02:12:41.735Z,22.04
2023-08-14T02:15:10.929Z,22.02
2023-08-14T02:17:40.395Z,22.01
2023-08-14T02:20:10.466Z,21.98
2023-08-14T02:22:38.568Z,21.94
2023-08-14T02:25:06.994Z,21.93
2023-08-14T02:27:35.059Z,21.91
2023-08-14T02:30:04.299Z,21.88
2023-08-14T02:32:32.335Z,21.86
2023-08-14T02:35:01.700Z,21.82
2023-08-14T02:37:29.947Z,21.80
2023-08-14T02:39:57.991Z,21.78
2023-08-14T02:42:26.033Z,21.80
2023-08-14T02:44:55.044Z,21.82
2023-08-14T02:47:25.759Z,21.81
2023-08-14T02:49:55.001Z,21.78
2023-08-14T02:52:24.394Z,21.76
2023-08-14T02:54:52.600Z,21.78
2023-08-14T02:57:20.602Z,21.78
2023-08-14T02:59:48.712Z,21.76
2023-08-14T03:02:16.948Z,21.79
2023-08-14T03:04:46.037Z,21.71
2023-08-14T03:07:14.095Z,21.70
2023-08-14T03:09:43.587Z,21.70
2023-08-14T03:12:11.692Z,21.72
2023-08-14T03:14:39.822Z,21.73
2023-08-14T03:17:07.875Z,21.78
2023-08-14T03:19:36.066Z,21.77
2023-08-14T03:22:04.239Z,21.77
2023-08-14T03:24:32.324Z,21.76
2023-08-14T03:27:01.725Z,21.70
2023-08-14T03:29:29.713Z,21.64
2023-08-14T03:31:57.808Z,21.65
2023-08-14T03:34:25.904Z,21.65
2023-08-14T03:36:55.354Z,21.65
2023-08-14T03:39:24.276Z,21.65
2023-08-14T03:41:52.734Z,21.68
2023-08-14T03:44:22.243Z,21.70
2023-08-14T03:46:50.302Z,21.75
2023-08-14T03:49:18.347Z,21.79
2023-08-14T03:51:46.409Z,21.81
2023-08-14T03:54:14.723Z,21.87
2023-08-14T03:56:42.825Z,21.92
2023-08-14T03:59:12.828Z,21.95
2023-08-14T04:01:44.495Z,21.96
2023-08-14T04:04:12.794Z,21.96
2023-08-14T04:06:40.857Z,21.97
2023-08-14T04:09:10.482Z,21.95
2023-08-14T04:11:38.604Z,21.94
2023-08-14T04:14:06.721Z,21.94
2023-08-14T04:16:45.226Z,21.92
2023-08-14T04:19:16.290Z,21.87
2023-08-14T04:21:44.520Z,21.91
2023-08-14T04:24:12.785Z,21.89
2023-08-14T04:26:41.181Z,21.89
2023-08-14T04:29:10.242Z,21.85
2023-08-14T04:31:38.732Z,21.89
2023-08-14T04:34:07.205Z,21.94
2023-08-14T04:36:38.093Z,21.97
2023-08-14T04:39:06.588Z,22.00
2023-08-14T04:41:34.691Z,22.03
2023-08-14T04:44:03.081Z,22.03
2023-08-14T04:46:41.136Z,22.02
2023-08-14T04:49:13.880Z,22.05
2023-08-14T04:51:43.895Z,22.01
2023-08-14T04:54:11.944Z,22.02
2023-08-14T04:56:39.984Z,22.05
2023-08-14T04:59:08.109Z,22.04
2023-08-14T05:01:36.397Z,22.02
2023-08-14T05:04:05.529Z,22.03
2023-08-14T05:06:33.739Z,22.06
2023-08-14T05:09:16.000Z,22.08
2023-08-14T05:11:52.403Z,22.07
2023-08-14T05:14:20.501Z,22.12
2023-08-14T05:16:48.821Z,22.14
2023-08-14T05:19:16.975Z,22.15
2023-08-14T05:21:46.366Z,22.14
2023-08-14T05:24:16.139Z,22.05
2023-08-14T05:26:44.178Z,22.07
2023-08-14T05:29:12.339Z,22.02
2023-08-14T05:31:40.405Z,22.01
2023-08-14T05:34:08.439Z,22.02
2023-08-14T05:36:36.564Z,22.04
2023-08-14T05:39:05.049Z,22.05
2023-08-14T05:41:34.422Z,22.09
2023-08-14T05:44:02.478Z,22.08
2023-08-14T05:46:30.489Z,22.11
2023-08-14T05:48:58.549Z,22.14
2023-08-14T05:51:26.676Z,22.16
2023-08-14T05:53:54.700Z,22.19
2023-08-14T05:56:22.759Z,22.22
2023-08-14T05:58:52.199Z,22.23
2023-08-14T06:01:20.445Z,22.30
2023-08-14T06:03:48.932Z,22.32
2023-08-14T06:06:17.089Z,22.36
2023-08-14T06:08:45.074Z,22.40
2023-08-14T06:11:13.139Z,22.43
2023-08-14T06:13:41.163Z,22.45
2023-08-14T06:16:10.624Z,22.49
2023-08-14T06:18:38.697Z,22.51
2023-08-14T06:21:06.817Z,22.53
2023-08-14T06:23:34.867Z,22.54
2023-08-14T06:26:03.102Z,22.56
2023-08-14T06:28:31.066Z,22.56
2023-08-14T06:31:02.824Z,22.58
2023-08-14T06:33:32.932Z,22.61
2023-08-14T06:36:01.213Z,22.57
2023-08-14T06:38:29.612Z,22.59
2023-08-14T06:40:57.714Z,22.56
2023-08-14T06:43:25.704Z,22.62
2023-08-14T06:45:53.762Z,22.64
2023-08-14T06:48:21.733Z,22.64
2023-08-14T06:50:51.317Z,22.61
2023-08-14T06:53:19.445Z,22.60
2023-08-14T06:55:48.652Z,22.60
2023-08-14T06:58:16.712Z,22.61
2023-08-14T07:00:44.851Z,22.65
2023-08-14T07:03:12.963Z,22.68
2023-08-14T07:05:41.151Z,22.69
2023-08-14T07:08:10.631Z,22.68
2023-08-14T07:10:38.693Z,22.74
2023-08-14T07:13:07.857Z,22.79
2023-08-14T07:15:37.373Z,22.80
2023-08-14T07:18:07.691Z,22.85
2023-08-14T07:20:35.789Z,22.90
2023-08-14T07:23:03.946Z,22.94
2023-08-14T07:25:33.404Z,22.88
2023-08-14T07:28:01.513Z,22.93
2023-08-14T07:30:29.518Z,22.94
2023-08-14T07:32:57.714Z,22.93
2023-08-14T07:35:25.744Z,22.90
2023-08-14T07:37:53.805Z,22.93
2023-08-14T07:40:21.889Z,22.91
2023-08-14T07:42:51.296Z,22.89
2023-08-14T07:45:20.515Z,22.94
2023-08-14T07:47:48.650Z,22.94
2023-08-14T07:50:16.815Z,23.03
2023-08-14T07:52:44.829Z,23.06
2023-08-14T07:55:12.855Z,23.11
2023-08-14T07:57:46.296Z,23.13
2023-08-14T08:00:16.785Z,23.21
2023-08-14T08:02:44.978Z,23.32
2023-08-14T08:05:13.104Z,23.25
2023-08-14T08:07:41.315Z,23.38
2023-08-14T08:10:09.664Z,23.43
2023-08-14T08:12:37.820Z,23.38
2023-08-14T08:15:06.974Z,23.39
2023-08-14T08:17:36.490Z,23.42
2023-08-14T08:20:06.005Z,23.43
2023-08-14T08:22:34.178Z,23.47
2023-08-14T08:25:02.327Z,23.50
2023-08-14T08:27:30.474Z,23.58
2023-08-14T08:29:58.654Z,23.61
2023-08-14T08:32:28.464Z,23.82
2023-08-14T08:35:00.396Z,23.83
2023-08-14T08:37:28.505Z,23.86
2023-08-14T08:39:56.635Z,23.88
2023-08-14T08:42:24.895Z,23.84
2023-08-14T08:44:53.149Z,23.72
2023-08-14T08:47:24.031Z,23.89
2023-08-14T08:49:52.151Z,23.95
2023-08-14T08:52:21.741Z,23.93
2023-08-14T08:54:50.127Z,23.92
2023-08-14T08:57:18.328Z,23.89
2023-08-14T08:59:46.514Z,23.80
2023-08-14T09:02:14.663Z,23.74
2023-08-14T09:04:42.857Z,23.67
2023-08-14T09:07:11.049Z,23.61
2023-08-14T09:09:40.570Z,23.57
2023-08-14T09:12:08.907Z,23.55
2023-08-14T09:14:37.020Z,23.61
2023-08-14T09:17:05.215Z,23.61
2023-08-14T09:19:33.248Z,23.74
2023-08-14T09:22:01.276Z,23.78
2023-08-14T09:24:29.382Z,23.77
2023-08-14T09:26:58.725Z,23.73
2023-08-14T09:29:26.789Z,23.56
2023-08-14T09:31:55.024Z,23.40
2023-08-14T09:34:23.218Z,23.30
2023-08-14T09:36:51.329Z,23.25
2023-08-14T09:39:19.503Z,23.08
2023-08-14T09:41:48.679Z,23.09
2023-08-14T09:44:20.509Z,23.05
2023-08-14T09:46:50.627Z,23.15
2023-08-14T09:49:19.066Z,23.09
2023-08-14T09:51:56.147Z,23.18
2023-08-14T09:54:32.788Z,23.26
2023-08-14T09:59:37.956Z,23.43
2023-08-14T10:02:07.224Z,23.45
2023-08-14T10:04:35.335Z,23.33
2023-08-14T10:07:03.689Z,23.29
2023-08-14T10:09:31.861Z,23.29
2023-08-14T10:12:02.135Z,23.18
2023-08-14T10:14:30.285Z,23.22
2023-08-14T10:17:00.538Z,23.30
2023-08-14T10:19:30.260Z,23.25
2023-08-14T10:21:58.385Z,23.18
2023-08-14T10:24:28.831Z,23.25
2023-08-14T10:26:57.770Z,23.32
2023-08-14T10:29:25.876Z,23.32
2023-08-14T10:31:54.045Z,23.17
2023-08-14T10:34:24.457Z,23.16
2023-08-14T10:36:53.116Z,23.14
2023-08-14T10:39:21.245Z,23.13
2023-08-14T10:41:49.438Z,22.90
2023-08-14T10:44:17.529Z,22.90
2023-08-14T10:46:46.550Z,22.92
2023-08-14T10:49:15.073Z,22.93
2023-08-14T10:51:44.915Z,23.12
2023-08-14T10:54:14.108Z,23.06
2023-08-14T10:56:44.307Z,23.16
2023-08-14T10:59:23.660Z,23.33
2023-08-14T11:01:53.439Z,23.27
2023-08-14T11:04:21.715Z,23.27
2023-08-14T11:07:09.961Z,23.33
2023-08-14T11:09:38.860Z,23.33
2023-08-14T11:12:07.938Z,23.35
2023-08-14T11:14:40.148Z,23.24
2023-08-14T11:17:09.217Z,23.26
2023-08-14T11:19:37.396Z,23.35
2023-08-14T11:22:06.959Z,23.48
2023-08-14T11:24:35.145Z,23.48
2023-08-14T11:27:03.399Z,23.58
2023-08-14T11:29:33.066Z,23.46
2023-08-14T11:32:02.308Z,23.57
2023-08-14T11:34:33.390Z,23.53
2023-08-14T11:39:34.821Z,23.53
2023-08-14T11:42:04.511Z,23.78
2023-08-14T11:44:34.711Z,23.82
2023-08-14T11:47:04.053Z,23.89
2023-08-14T11:49:33.585Z,23.73
2023-08-14T11:52:04.241Z,23.78
2023-08-14T11:54:34.263Z,23.70
2023-08-14T11:57:03.768Z,23.66
2023-08-14T11:59:31.977Z,23.83
2023-08-14T12:02:00.055Z,23.81
2023-08-14T12:04:28.165Z,23.81
2023-08-14T12:06:56.550Z,23.72
2023-08-14T12:09:27.889Z,23.67
2023-08-14T12:11:57.517Z,23.78
2023-08-14T12:14:25.561Z,23.70
2023-08-14T12:16:53.730Z,23.71
2023-08-14T12:19:22.390Z,23.70
2023-08-14T12:21:57.910Z,23.39
2023-08-14T12:24:26.241Z,23.45
2023-08-14T12:26:55.328Z,23.47
2023-08-14T12:29:24.879Z,23.51
2023-08-14T12:31:53.888Z,23.59
2023-08-14T12:34:22.819Z,23.50
2023-08-14T12:36:50.899Z,23.40
2023-08-14T12:39:19.012Z,23.44
2023-08-14T12:41:47.143Z,23.28
2023-08-14T12:44:15.491Z,23.47
2023-08-14T12:46:45.000Z,23.52
2023-08-14T12:49:13.102Z,23.52
2023-08-14T12:51:42.719Z,23.46
2023-08-14T12:54:12.079Z,23.52
2023-08-14T12:56:40.797Z,23.56
2023-08-14T12:59:09.625Z,23.54
2023-08-14T13:01:38.066Z,23.62
2023-08-14T13:04:08.058Z,23.65
2023-08-14T13:06:36.136Z,23.80
2023-08-14T13:09:04.285Z,23.97
2023-08-14T13:11:32.422Z,23.88
2023-08-14T13:14:00.496Z,23.91
2023-08-14T13:16:28.763Z,23.96
2023-08-14T13:18:56.904Z,23.95
2023-08-14T13:21:26.920Z,23.86
2023-08-14T13:23:54.992Z,23.88
2023-08-14T13:26:27.103Z,23.77
2023-08-14T13:28:56.419Z,23.71
2023-08-14T13:31:24.512Z,23.59
2023-08-14T13:33:52.813Z,23.59
2023-08-14T13:36:20.985Z,23.50
2023-08-14T13:38:50.401Z,23.42
2023-08-14T13:41:19.024Z,23.41
2023-08-14T13:43:47.901Z,23.38
2023-08-14T13:46:16.084Z,23.30
2023-08-14T13:48:45.739Z,23.17
2023-08-14T13:51:14.292Z,23.24
2023-08-14T13:53:42.382Z,23.26
2023-08-14T13:56:11.767Z,23.18
2023-08-14T13:58:39.839Z,23.16
2023-08-14T14:01:08.533Z,23.03
2023-08-14T14:03:36.556Z,22.93
2023-08-14T14:06:04.695Z,23.06
2023-08-14T14:08:33.027Z,22.98
2023-08-14T14:11:01.188Z,23.01
2023-08-14T14:13:31.939Z,22.89
2023-08-14T14:16:00.152Z,22.93
2023-08-14T14:18:28.299Z,23.03
2023-08-14T14:20:56.468Z,23.13
2023-08-14T14:23:24.729Z,23.06
2023-08-14T14:25:52.930Z,23.12
2023-08-14T14:28:21.250Z,23.10
2023-08-14T14:30:50.921Z,23.11
2023-08-14T14:33:18.985Z,23.13
2023-08-14T14:35:47.029Z,23.00
2023-08-14T14:38:15.194Z,23.12
2023-08-14T14:40:43.217Z,23.13
2023-08-14T14:43:11.432Z,23.15
2023-08-14T14:45:39.508Z,23.18
2023-08-14T14:48:09.191Z,23.21
2023-08-14T14:50:37.161Z,23.27
2023-08-14T14:53:05.566Z,23.20
2023-08-14T14:55:33.963Z,23.16
2023-08-14T14:58:02.069Z,23.21
2023-08-14T15:00:30.153Z,23.28
2023-08-14T15:02:58.363Z,23.34
2023-08-14T15:05:29.543Z,23.47
2023-08-14T15:07:57.944Z,23.47
2023-08-14T15:10:26.051Z,23.65
2023-08-14T15:12:54.249Z,23.80
2023-08-14T15:15:23.076Z,23.93
2023-08-14T15:17:51.381Z,24.13
2023-08-14T15:20:19.918Z,24.19
2023-08-14T15:22:49.388Z,24.12
2023-08-14T15:25:19.754Z,24.22
2023-08-14T15:27:47.901Z,24.55
2023-08-14T15:30:17.502Z,24.94
2023-08-14T15:32:48.091Z,25.33
2023-08-14T15:35:16.945Z,24.91
2023-08-14T15:37:45.147Z,24.78
2023-08-14T15:40:15.065Z,24.75
2023-08-14T15:42:43.124Z,25.19
2023-08-14T15:45:14.264Z,25.24
2023-08-14T15:47:43.285Z,25.52
2023-08-14T15:50:11.719Z,25.99
2023-08-14T15:52:39.816Z,25.99
2023-08-14T15:55:09.042Z,25.82
2023-08-14T15:57:38.469Z,25.62
2023-08-14T16:00:11.155Z,25.41
2023-08-14T16:02:41.232Z,25.39
2023-08-14T16:05:09.894Z,25.08
2023-08-14T16:07:38.413Z,24.79
2023-08-14T16:10:06.890Z,24.72
2023-08-14T16:12:34.850Z,25.27
2023-08-14T16:15:05.133Z,25.19
2023-08-14T16:17:33.162Z,24.81
2023-08-14T16:20:01.204Z,24.39
2023-08-14T16:22:29.258Z,24.21
2023-08-14T16:24:57.248Z,24.31
2023-08-14T16:27:25.276Z,24.30
2023-08-14T16:29:53.247Z,24.21
2023-08-14T16:32:22.620Z,24.12
2023-08-14T16:34:50.619Z,24.07
2023-08-14T16:37:19.653Z,24.15
2023-08-14T16:39:48.385Z,24.27
2023-08-14T16:42:16.394Z,24.26
2023-08-14T16:44:44.925Z,24.40
2023-08-14T16:47:13.831Z,24.46
2023-08-14T16:49:43.343Z,24.99
2023-08-14T16:52:11.380Z,25.37
2023-08-14T16:54:39.505Z,25.73
2023-08-14T16:57:07.837Z,25.95
2023-08-14T16:59:35.850Z,26.05
2023-08-14T17:02:05.290Z,26.17
2023-08-14T17:04:33.418Z,26.19
2023-08-14T17:07:04.153Z,26.04
2023-08-14T17:09:32.230Z,26.07
2023-08-14T17:12:00.254Z,26.11
2023-08-14T17:14:28.435Z,26.25
2023-08-14T17:17:00.031Z,26.28
2023-08-14T17:19:28.547Z,26.39
2023-08-14T17:21:56.520Z,26.33
2023-08-14T17:24:25.994Z,26.34
2023-08-14T17:26:53.988Z,26.40
2023-08-14T17:29:22.506Z,26.23
2023-08-14T17:31:51.522Z,25.96
2023-08-14T17:34:19.552Z,25.90
2023-08-14T17:36:48.273Z,26.00
2023-08-14T17:39:16.407Z,26.11
2023-08-14T17:41:45.872Z,26.00
2023-08-14T17:44:15.355Z,25.46
2023-08-14T17:46:43.328Z,24.95
2023-08-14T17:49:11.379Z,24.84
2023-08-14T17:51:39.355Z,24.48
2023-08-14T17:54:07.411Z,24.06
2023-08-14T17:56:35.429Z,23.79
2023-08-14T17:59:05.186Z,23.55
2023-08-14T18:01:33.943Z,23.40
2023-08-14T18:04:02.155Z,23.23
2023-08-14T18:06:30.243Z,23.14
2023-08-14T18:08:58.229Z,22.98
2023-08-14T18:11:26.297Z,23.01
2023-08-14T18:13:54.559Z,22.98
2023-08-14T18:16:23.995Z,23.04
2023-08-14T18:18:58.147Z,23.13
2023-08-14T18:21:36.976Z,23.09
2023-08-14T18:24:05.605Z,22.95
2023-08-14T18:26:33.621Z,22.84
2023-08-14T18:29:02.090Z,22.77
2023-08-14T18:31:31.554Z,22.70
2023-08-14T18:33:59.571Z,22.62
2023-08-14T18:36:29.401Z,22.62
2023-08-14T18:38:57.512Z,22.60
2023-08-14T18:41:25.555Z,22.53
2023-08-14T18:43:53.560Z,22.43
2023-08-14T18:46:21.870Z,22.37
2023-08-14T18:48:51.362Z,22.31
2023-08-14T18:51:19.369Z,22.20
2023-08-14T18:53:48.452Z,22.16
2023-08-14T18:56:16.486Z,22.09
2023-08-14T18:58:47.389Z,22.06
2023-08-14T19:01:15.423Z,22.02
2023-08-14T19:03:43.535Z,22.05
2023-08-14T19:06:13.047Z,22.03
2023-08-14T19:08:41.125Z,22.05
2023-08-14T19:11:09.080Z,22.08
2023-08-14T19:13:37.965Z,22.08
2023-08-14T19:16:06.380Z,22.07
2023-08-14T19:18:34.532Z,22.06
2023-08-14T19:21:03.329Z,22.03
2023-08-14T19:23:32.953Z,21.99
2023-08-14T19:26:06.436Z,21.96
2023-08-14T19:28:40.161Z,21.95
2023-08-14T19:31:09.104Z,21.94
2023-08-14T19:33:37.191Z,21.96
2023-08-14T19:36:05.643Z,21.96
2023-08-14T19:38:35.087Z,21.95
2023-08-14T19:41:03.084Z,21.93
2023-08-14T19:43:31.098Z,21.90
2023-08-14T19:45:59.940Z,21.89
2023-08-14T19:48:27.928Z,21.85
2023-08-14T19:50:56.007Z,21.83
2023-08-14T19:53:23.978Z,21.76
2023-08-14T19:55:53.956Z,21.71
2023-08-14T19:58:23.450Z,21.66
2023-08-14T20:00:51.790Z,21.62
2023-08-14T20:03:19.903Z,21.59
2023-08-14T20:05:48.966Z,21.53
2023-08-14T20:08:17.119Z,21.48
2023-08-14T20:10:45.185Z,21.46
2023-08-14T20:13:14.699Z,21.46
2023-08-14T20:15:44.628Z,21.50
2023-08-14T20:18:12.953Z,21.55
2023-08-14T20:20:41.283Z,21.57
2023-08-14T20:23:09.349Z,21.60
2023-08-14T20:25:38.141Z,21.60
2023-08-14T20:28:07.100Z,21.57
2023-08-14T20:30:40.152Z,21.58
2023-08-14T20:33:08.457Z,21.57
2023-08-14T20:35:40.557Z,21.53
2023-08-14T20:38:08.724Z,21.51
2023-08-14T20:40:37.142Z,21.52
2023-08-14T20:43:10.903Z,21.49
2023-08-14T20:45:40.716Z,21.45
2023-08-14T20:48:09.321Z,21.46
2023-08-14T20:50:37.937Z,21.48
2023-08-14T20:53:06.078Z,21.49
2023-08-14T20:55:34.211Z,21.51
2023-08-14T20:58:02.262Z,21.53
2023-08-14T21:00:30.274Z,21.48
2023-08-14T21:02:59.732Z,21.46
2023-08-14T21:05:27.785Z,21.49
2023-08-14T21:07:55.817Z,21.51
2023-08-14T21:10:23.787Z,21.50
2023-08-14T21:12:51.854Z,21.50
2023-08-14T21:15:19.853Z,21.51
2023-08-14T21:17:47.977Z,21.52
2023-08-14T21:20:17.411Z,21.48
2023-08-14T21:22:46.171Z,21.47
2023-08-14T21:25:15.507Z,21.49
2023-08-14T21:27:43.579Z,21.51
2023-08-14T21:30:12.838Z,21.51
2023-08-14T21:32:40.928Z,21.53
2023-08-14T21:35:09.792Z,21.55
2023-08-14T21:37:40.302Z,21.56
2023-08-14T21:40:09.642Z,21.62
2023-08-14T21:42:37.652Z,21.69
2023-08-14T21:45:06.196Z,21.79
2023-08-14T21:47:34.211Z,21.81
2023-08-14T21:50:02.473Z,21.82
2023-08-14T21:52:31.328Z,21.86
2023-08-14T21:55:00.740Z,21.89
2023-08-14T21:57:28.726Z,21.91
2023-08-14T21:59:56.744Z,21.91
2023-08-14T22:02:24.766Z,21.89
2023-08-14T22:04:52.845Z,21.90
2023-08-14T22:07:21.009Z,21.93
2023-08-14T22:09:49.245Z,21.99
2023-08-14T22:12:18.574Z,22.01
2023-08-14T22:14:46.705Z,22.03
2023-08-14T22:17:14.646Z,21.96
2023-08-14T22:19:42.668Z,21.93
2023-08-14T22:22:10.702Z,21.94
2023-08-14T22:24:41.325Z,21.97
2023-08-14T22:27:09.944Z,21.94
2023-08-14T22:29:39.334Z,21.90
2023-08-14T22:32:07.333Z,21.92
2023-08-14T22:34:37.442Z,21.96
2023-08-14T22:37:05.533Z,21.98
2023-08-14T22:39:33.558Z,21.99
2023-08-14T22:42:01.567Z,22.01
2023-08-14T22:44:29.563Z,21.99
2023-08-14T22:46:58.903Z,22.00
2023-08-14T22:49:26.890Z,22.03
2023-08-14T22:51:54.865Z,22.01
2023-08-14T22:54:23.024Z,22.02
2023-08-14T22:56:50.994Z,22.00
2023-08-14T22:59:19.033Z,21.96
2023-08-14T23:01:47.084Z,21.95
2023-08-14T23:04:16.524Z,21.96
2023-08-14T23:06:44.584Z,21.93
2023-08-14T23:09:12.582Z,21.91
2023-08-14T23:11:40.564Z,21.82
2023-08-14T23:14:08.805Z,21.71
2023-08-14T23:16:37.198Z,21.64
2023-08-14T23:19:05.383Z,21.63
2023-08-14T23:21:34.730Z,21.56
2023-08-14T23:24:02.773Z,21.52
2023-08-14T23:26:30.736Z,21.52
2023-08-14T23:28:58.761Z,21.56
2023-08-14T23:31:26.843Z,21.59
2023-08-14T23:33:54.934Z,21.54
2023-08-14T23:36:22.974Z,21.52
2023-08-14T23:38:52.319Z,21.52
2023-08-14T23:41:20.294Z,21.53
2023-08-14T23:43:48.241Z,21.53
2023-08-14T23:46:16.252Z,21.48
2023-08-14T23:48:44.253Z,21.43
2023-08-14T23:51:12.557Z,21.45
2023-08-14T23:53:40.571Z,21.50
2023-08-14T23:56:10.086Z,21.53
2023-08-14T23:58:38.083Z,21.57
